createdAt,value
2018-09-09T00:00:21.232Z,101058.70
2018-09-09T00:02:49.248Z,101062.83
2018-09-09T00:05:17.299Z,101059.16
2018-09-09T00:07:45.438Z,101060.08
2018-09-09T00:10:13.643Z,101063.48
2018-09-09T00:12:41.692Z,101066.48
2018-09-09T00:15:09.922Z,101068.01
2018-09-09T00:17:38.077Z,101065.83
2018-09-09T00:20:06.146Z,101062.66
2018-09-09T00:22:34.156Z,101063.39
2018-09-09T00:25:02.201Z,101062.75
2018-09-09T00:27:30.221Z,101065.34
2018-09-09T00:29:58.372Z,101058.32
2018-09-09T00:32:26.560Z,101061.65
2018-09-09T00:34:54.660Z,101060.83
2018-09-09T00:37:22.838Z,101063.39
2018-09-09T00:39:50.832Z,101066.78
2018-09-09T00:42:18.853Z,101059.31
2018-09-09T00:44:46.920Z,101057.34
2018-09-09T00:47:14.940Z,101057.37
2018-09-09T00:49:48.390Z,101060.73
2018-09-09T00:52:21.820Z,101058.22
2018-09-09T00:54:49.994Z,101059.97
2018-09-09T00:57:18.153Z,101057.37
2018-09-09T00:59:46.449Z,101058.64
2018-09-09T01:02:14.641Z,101056.19
2018-09-09T01:04:42.693Z,101052.08
2018-09-09T01:07:10.726Z,101055.81
2018-09-09T01:09:38.728Z,101052.57
2018-09-09T01:12:06.759Z,101056.23
2018-09-09T01:14:35.364Z,101053.41
2018-09-09T01:17:03.456Z,101059.97
2018-09-09T01:19:31.571Z,101053.25
2018-09-09T01:21:59.736Z,101055.62
2018-09-09T01:24:27.780Z,101056.16
2018-09-09T01:26:55.801Z,101050.20
2018-09-09T01:29:24.065Z,101047.06
2018-09-09T01:31:52.166Z,101049.88
2018-09-09T01:34:20.308Z,101047.03
2018-09-09T01:36:48.504Z,101051.94
2018-09-09T01:39:16.616Z,101050.58
2018-09-09T01:41:44.816Z,101050.98
2018-09-09T01:44:12.836Z,101052.17
2018-09-09T01:46:40.849Z,101052.78
2018-09-09T01:49:08.856Z,101055.56
2018-09-09T01:51:36.868Z,101051.30
2018-09-09T01:54:04.921Z,101055.83
2018-09-09T01:56:32.941Z,101056.70
2018-09-09T01:59:01.037Z,101050.48
2018-09-09T02:01:29.104Z,101055.22
2018-09-09T02:03:57.284Z,101059.45
2018-09-09T02:06:25.309Z,101056.55
2018-09-09T02:08:53.372Z,101059.45
2018-09-09T02:11:21.426Z,101056.06
2018-09-09T02:13:49.481Z,101061.40
2018-09-09T02:16:17.494Z,101061.55
2018-09-09T02:18:45.505Z,101060.30
2018-09-09T02:21:13.545Z,101063.92
2018-09-09T02:23:41.805Z,101063.28
2018-09-09T02:26:09.855Z,101059.11
2018-09-09T02:28:38.009Z,101061.41
2018-09-09T02:31:07.061Z,101071.13
2018-09-09T02:33:35.094Z,101071.99
2018-09-09T02:36:03.100Z,101072.20
2018-09-09T02:38:31.143Z,101075.15
2018-09-09T02:40:59.192Z,101075.66
2018-09-09T02:43:27.270Z,101069.72
2018-09-09T02:45:55.321Z,101074.23
2018-09-09T02:48:23.677Z,101070.34
2018-09-09T02:50:51.835Z,101064.50
2018-09-09T02:53:19.859Z,101065.48
2018-09-09T02:55:47.917Z,101072.65
2018-09-09T02:58:17.153Z,101067.08
2018-09-09T03:00:45.794Z,101067.08
2018-09-09T03:03:13.958Z,101064.28
2018-09-09T03:05:42.700Z,101060.86
2018-09-09T03:08:10.763Z,101055.06
2018-09-09T03:10:39.416Z,101054.83
2018-09-09T03:13:07.457Z,101053.00
2018-09-09T03:15:35.591Z,101063.45
2018-09-09T03:18:03.968Z,101063.20
2018-09-09T03:20:31.999Z,101058.81
2018-09-09T03:23:00.140Z,101057.89
2018-09-09T03:25:28.252Z,101053.01
2018-09-09T03:27:56.360Z,101061.48
2018-09-09T03:30:24.378Z,101053.50
2018-09-09T03:32:52.376Z,101057.65
2018-09-09T03:35:20.391Z,101056.20
2018-09-09T03:37:48.414Z,101058.62
2018-09-09T03:40:16.513Z,101058.03
2018-09-09T03:42:44.576Z,101059.22
2018-09-09T03:45:12.672Z,101055.11
2018-09-09T03:47:40.704Z,101057.65
2018-09-09T03:50:08.793Z,101054.03
2018-09-09T03:52:36.857Z,101046.36
2018-09-09T03:55:04.921Z,101044.34
2018-09-09T03:57:32.954Z,101051.23
2018-09-09T04:00:00.961Z,101058.38
2018-09-09T04:02:28.970Z,101051.11
2018-09-09T04:04:57.006Z,101052.57
2018-09-09T04:07:25.051Z,101049.42
2018-09-09T04:09:53.060Z,101049.55
2018-09-09T04:12:21.092Z,101054.16
2018-09-09T04:14:49.162Z,101053.20
2018-09-09T04:17:17.221Z,101057.31
2018-09-09T04:19:45.281Z,101060.34
2018-09-09T04:22:13.437Z,101066.03
2018-09-09T04:24:41.581Z,101068.47
2018-09-09T04:27:09.605Z,101066.64
2018-09-09T04:29:37.617Z,101066.03
2018-09-09T04:32:05.804Z,101069.05
2018-09-09T04:34:33.800Z,101066.78
2018-09-09T04:37:01.833Z,101066.63
2018-09-09T04:39:29.928Z,101068.70
2018-09-09T04:41:57.937Z,101070.63
2018-09-09T04:44:26.039Z,101065.31
2018-09-09T04:46:54.140Z,101062.75
2018-09-09T04:49:22.256Z,101071.73
2018-09-09T04:51:50.431Z,101074.15
2018-09-09T04:54:19.242Z,101073.81
2018-09-09T04:56:47.265Z,101071.71
2018-09-09T04:59:15.296Z,101071.14
2018-09-09T05:01:43.344Z,101077.18
2018-09-09T05:04:11.413Z,101074.27
2018-09-09T05:06:39.464Z,101073.42
2018-09-09T05:09:07.914Z,101077.80
2018-09-09T05:11:36.117Z,101078.52
2018-09-09T05:14:04.280Z,101078.52
2018-09-09T05:16:32.419Z,101089.55
2018-09-09T05:19:00.511Z,101084.95
2018-09-09T05:21:28.884Z,101084.45
2018-09-09T05:23:57.128Z,101090.41
2018-09-09T05:26:25.145Z,101095.48
2018-09-09T05:28:53.227Z,101100.45
2018-09-09T05:31:21.327Z,101097.44
2018-09-09T05:33:49.397Z,101095.00
2018-09-09T05:36:17.511Z,101100.66
2018-09-09T05:38:45.867Z,101097.28
2018-09-09T05:41:13.970Z,101092.68
2018-09-09T05:43:41.997Z,101097.62
2018-09-09T05:46:10.037Z,101092.92
2018-09-09T05:48:38.079Z,101099.34
2018-09-09T05:51:06.925Z,101097.14
2018-09-09T05:53:34.943Z,101098.88
2018-09-09T05:56:02.988Z,101095.61
2018-09-09T05:58:31.031Z,101097.72
2018-09-09T06:00:59.145Z,101099.92
2018-09-09T06:03:27.249Z,101105.25
2018-09-09T06:05:55.329Z,101112.86
2018-09-09T06:08:23.328Z,101107.81
2018-09-09T06:10:53.312Z,101109.48
2018-09-09T06:13:22.033Z,101114.04
2018-09-09T06:15:50.241Z,101108.98
2018-09-09T06:18:18.308Z,101113.64
2018-09-09T06:20:46.458Z,101119.03
2018-09-09T06:23:15.025Z,101114.36
2018-09-09T06:25:43.212Z,101114.86
2018-09-09T06:28:11.280Z,101119.98
2018-09-09T06:30:39.244Z,101126.36
2018-09-09T06:33:07.512Z,101130.84
2018-09-09T06:35:35.566Z,101127.34
2018-09-09T06:38:03.604Z,101123.59
2018-09-09T06:40:31.592Z,101124.83
2018-09-09T06:42:59.693Z,101126.39
2018-09-09T06:45:27.981Z,101129.69
2018-09-09T06:47:56.274Z,101130.89
2018-09-09T06:50:24.326Z,101135.67
2018-09-09T06:52:52.376Z,101140.69
2018-09-09T06:55:20.478Z,101137.25
2018-09-09T06:57:48.481Z,101139.50
2018-09-09T07:00:17.541Z,101136.94
2018-09-09T07:02:45.621Z,101137.47
2018-09-09T07:05:13.741Z,101146.64
2018-09-09T07:07:41.851Z,101138.37
2018-09-09T07:10:09.919Z,101143.34
2018-09-09T07:12:38.034Z,101146.20
2018-09-09T07:15:06.171Z,101151.19
2018-09-09T07:17:34.273Z,101147.41
2018-09-09T07:20:02.281Z,101145.84
2018-09-09T07:22:30.353Z,101147.16
2018-09-09T07:24:58.356Z,101144.82
2018-09-09T07:27:26.484Z,101141.17
2018-09-09T07:29:54.602Z,101144.60
2018-09-09T07:32:22.717Z,101147.43
2018-09-09T07:34:50.736Z,101143.86
2018-09-09T07:37:19.054Z,101147.27
2018-09-09T07:39:47.223Z,101155.87
2018-09-09T07:42:15.260Z,101157.44
2018-09-09T07:44:43.393Z,101149.44
2018-09-09T07:47:11.440Z,101154.91
2018-09-09T07:49:39.557Z,101155.23
2018-09-09T07:52:07.792Z,101155.22
2018-09-09T07:54:35.836Z,101158.52
2018-09-09T07:57:03.959Z,101170.23
2018-09-09T07:59:33.804Z,101181.09
2018-09-09T08:02:01.917Z,101185.27
2018-09-09T08:04:30.161Z,101187.22
2018-09-09T08:06:58.374Z,101192.92
2018-09-09T08:09:26.389Z,101197.42
2018-09-09T08:11:54.444Z,101192.14
2018-09-09T08:14:22.477Z,101202.49
2018-09-09T08:16:50.489Z,101202.50
2018-09-09T08:19:18.605Z,101205.27
2018-09-09T08:21:46.705Z,101199.30
2018-09-09T08:24:14.738Z,101203.25
2018-09-09T08:26:42.849Z,101204.15
2018-09-09T08:29:10.967Z,101204.98
2018-09-09T08:31:38.964Z,101209.69
2018-09-09T08:34:06.999Z,101207.40
2018-09-09T08:36:35.004Z,101211.33
2018-09-09T08:39:03.105Z,101210.66
2018-09-09T08:41:32.265Z,101197.22
2018-09-09T08:44:00.309Z,101204.88
2018-09-09T08:46:28.317Z,101198.56
2018-09-09T08:48:56.333Z,101202.02
2018-09-09T08:51:24.366Z,101207.97
2018-09-09T08:53:52.397Z,101206.84
2018-09-09T08:56:20.433Z,101200.44
2018-09-09T08:58:48.561Z,101194.42
2018-09-09T09:01:16.605Z,101195.08
2018-09-09T09:03:45.114Z,101190.88
2018-09-09T09:06:13.137Z,101191.45
2018-09-09T09:08:41.191Z,101193.50
2018-09-09T09:11:09.188Z,101192.18
2018-09-09T09:13:37.225Z,101197.52
2018-09-09T09:16:05.561Z,101192.48
2018-09-09T09:18:33.718Z,101195.37
2018-09-09T09:21:01.782Z,101189.27
2018-09-09T09:23:29.861Z,101184.20
2018-09-09T09:25:57.889Z,101180.55
2018-09-09T09:28:25.942Z,101181.52
2018-09-09T09:30:54.417Z,101177.44
2018-09-09T09:33:22.725Z,101185.48
2018-09-09T09:35:53.123Z,101168.73
2018-09-09T09:38:22.110Z,101170.40
2018-09-09T09:40:50.848Z,101164.50
2018-09-09T09:43:18.932Z,101164.22
2018-09-09T09:45:47.096Z,101162.73
2018-09-09T09:48:15.245Z,101164.23
2018-09-09T09:50:43.582Z,101159.98
2018-09-09T09:53:11.783Z,101156.55
2018-09-09T09:55:39.957Z,101166.46
2018-09-09T09:58:07.989Z,101156.43
2018-09-09T10:00:41.401Z,101154.16
2018-09-09T10:03:09.438Z,101154.48
2018-09-09T10:05:37.568Z,101156.70
2018-09-09T10:08:05.935Z,101156.56
2018-09-09T10:10:34.005Z,101148.13
2018-09-09T10:13:02.036Z,101157.11
2018-09-09T10:15:30.202Z,101146.73
2018-09-09T10:17:58.208Z,101147.80
2018-09-09T10:20:26.313Z,101151.22
2018-09-09T10:22:54.400Z,101156.31
2018-09-09T10:25:22.454Z,101153.73
2018-09-09T10:27:50.486Z,101150.24
2018-09-09T10:30:18.581Z,101144.30
2018-09-09T10:32:46.764Z,101148.92
2018-09-09T10:35:14.781Z,101146.52
2018-09-09T10:37:42.781Z,101147.80
2018-09-09T10:40:10.992Z,101158.92
2018-09-09T10:42:39.005Z,101152.57
2018-09-09T10:45:07.040Z,101150.69
2018-09-09T10:47:35.162Z,101149.60
2018-09-09T10:50:03.168Z,101145.86
2018-09-09T10:52:31.197Z,101151.52
2018-09-09T10:54:59.320Z,101156.98
2018-09-09T10:57:27.385Z,101158.70
2018-09-09T10:59:55.401Z,101159.20
2018-09-09T11:02:23.729Z,101159.92
2018-09-09T11:04:51.736Z,101163.53
2018-09-09T11:07:20.872Z,101155.34
2018-09-09T11:09:48.908Z,101152.33
2018-09-09T11:12:16.920Z,101149.69
2018-09-09T11:14:44.929Z,101142.77
2018-09-09T11:17:12.973Z,101145.91
2018-09-09T11:19:40.984Z,101147.39
2018-09-09T11:22:09.077Z,101154.48
2018-09-09T11:24:37.154Z,101152.52
2018-09-09T11:27:05.249Z,101148.90
2018-09-09T11:29:33.299Z,101162.79
2018-09-09T11:32:01.604Z,101155.95
2018-09-09T11:34:29.673Z,101151.73
2018-09-09T11:36:57.752Z,101163.48
2018-09-09T11:39:25.757Z,101161.41
2018-09-09T11:41:53.923Z,101144.73
2018-09-09T11:44:21.964Z,101153.25
2018-09-09T11:46:50.018Z,101152.32
2018-09-09T11:49:18.040Z,101147.23
2018-09-09T11:51:46.078Z,101148.25
2018-09-09T11:54:14.152Z,101154.30
2018-09-09T11:56:42.225Z,101145.13
2018-09-09T11:59:10.375Z,101153.60
2018-09-09T12:01:38.398Z,101142.54
2018-09-09T12:04:06.424Z,101148.95
2018-09-09T12:06:34.428Z,101144.75
2018-09-09T12:09:02.529Z,101140.97
2018-09-09T12:11:30.548Z,101139.94
2018-09-09T12:13:58.651Z,101134.20
2018-09-09T12:16:26.667Z,101134.89
2018-09-09T12:18:54.705Z,101132.79
2018-09-09T12:21:22.824Z,101125.05
2018-09-09T12:23:50.857Z,101133.45
2018-09-09T12:26:19.070Z,101136.36
2018-09-09T12:28:47.139Z,101134.28
2018-09-09T12:31:15.136Z,101135.52
2018-09-09T12:33:43.330Z,101133.89
2018-09-09T12:36:11.345Z,101136.98
2018-09-09T12:38:39.361Z,101137.48
2018-09-09T12:41:07.400Z,101137.13
2018-09-09T12:43:40.918Z,101133.98
2018-09-09T12:46:14.345Z,101137.72
2018-09-09T12:48:48.896Z,101127.23
2018-09-09T12:51:16.941Z,101134.86
2018-09-09T12:53:44.980Z,101129.70
2018-09-09T12:56:13.016Z,101128.14
2018-09-09T12:58:41.024Z,101129.36
2018-09-09T13:01:09.009Z,101125.54
2018-09-09T13:03:37.009Z,101130.78
2018-09-09T13:06:05.021Z,101125.40
2018-09-09T13:08:33.053Z,101132.80
2018-09-09T13:11:01.102Z,101130.83
2018-09-09T13:13:29.282Z,101140.33
2018-09-09T13:15:57.333Z,101140.92
2018-09-09T13:18:25.358Z,101129.61
2018-09-09T13:20:53.372Z,101134.62
2018-09-09T13:23:21.480Z,101134.30
2018-09-09T13:25:49.613Z,101127.45
2018-09-09T13:28:17.713Z,101131.77
2018-09-09T13:30:45.892Z,101128.56
2018-09-09T13:33:13.929Z,101123.88
2018-09-09T13:35:41.969Z,101126.38
2018-09-09T13:38:10.146Z,101127.12
2018-09-09T13:40:38.179Z,101125.23
2018-09-09T13:43:06.207Z,101130.33
2018-09-09T13:45:34.231Z,101130.66
2018-09-09T13:48:02.304Z,101125.66
2018-09-09T13:50:30.454Z,101131.45
2018-09-09T13:52:58.558Z,101141.42
2018-09-09T13:55:26.597Z,101132.58
2018-09-09T13:57:54.677Z,101136.34
2018-09-09T14:00:22.718Z,101131.84
2018-09-09T14:02:50.888Z,101126.28
2018-09-09T14:05:18.968Z,101130.34
2018-09-09T14:07:47.067Z,101123.16
2018-09-09T14:10:15.212Z,101131.44
2018-09-09T14:12:43.234Z,101135.96
2018-09-09T14:15:11.334Z,101136.30
2018-09-09T14:17:39.352Z,101137.91
2018-09-09T14:20:07.464Z,101140.74
2018-09-09T14:22:35.507Z,101137.89
2018-09-09T14:25:03.537Z,101136.34
2018-09-09T14:27:31.564Z,101144.03
2018-09-09T14:29:59.546Z,101140.48
2018-09-09T14:32:27.569Z,101129.78
2018-09-09T14:34:55.573Z,101134.44
2018-09-09T14:37:23.657Z,101139.23
2018-09-09T14:39:51.691Z,101138.09
2018-09-09T14:42:19.729Z,101136.00
2018-09-09T14:44:47.773Z,101140.52
2018-09-09T14:47:16.344Z,101129.52
2018-09-09T14:49:44.409Z,101133.61
2018-09-09T14:52:12.436Z,101131.11
2018-09-09T14:54:40.519Z,101135.24
2018-09-09T14:57:08.537Z,101138.75
2018-09-09T14:59:36.679Z,101132.77
2018-09-09T15:02:04.710Z,101130.77
2018-09-09T15:04:32.937Z,101138.80
2018-09-09T15:07:01.080Z,101135.39
2018-09-09T15:09:29.083Z,101137.27
2018-09-09T15:11:57.102Z,101129.58
2018-09-09T15:14:25.118Z,101125.63
2018-09-09T15:16:53.168Z,101131.97
2018-09-09T15:19:21.235Z,101128.33
2018-09-09T15:21:49.336Z,101119.80
2018-09-09T15:24:17.405Z,101122.98
2018-09-09T15:26:45.449Z,101129.27
2018-09-09T15:29:13.517Z,101126.09
2018-09-09T15:31:41.517Z,101130.30
2018-09-09T15:34:09.613Z,101122.98
2018-09-09T15:36:37.592Z,101118.35
2018-09-09T15:39:06.552Z,101115.08
2018-09-09T15:41:34.596Z,101114.34
2018-09-09T15:44:02.868Z,101112.03
2018-09-09T15:46:30.901Z,101119.55
2018-09-09T15:48:58.954Z,101122.31
2018-09-09T15:51:26.984Z,101125.94
2018-09-09T15:53:55.035Z,101123.22
2018-09-09T15:56:23.073Z,101111.86
2018-09-09T15:58:51.367Z,101111.45
2018-09-09T16:01:19.381Z,101110.56
2018-09-09T16:03:47.385Z,101111.81
2018-09-09T16:06:15.393Z,101107.66
2018-09-09T16:08:43.455Z,101120.19
2018-09-09T16:11:11.509Z,101111.09
2018-09-09T16:13:39.529Z,101118.42
2018-09-09T16:16:07.541Z,101114.12
2018-09-09T16:18:35.612Z,101121.14
2018-09-09T16:21:03.620Z,101117.89
2018-09-09T16:23:31.941Z,101116.14
2018-09-09T16:25:59.955Z,101115.55
2018-09-09T16:28:27.949Z,101114.92
2018-09-09T16:30:55.941Z,101123.47
2018-09-09T16:33:23.960Z,101119.67
2018-09-09T16:35:52.360Z,101121.25
2018-09-09T16:38:20.395Z,101128.54
2018-09-09T16:40:48.463Z,101116.84
2018-09-09T16:43:16.496Z,101117.22
2018-09-09T16:45:44.497Z,101117.22
2018-09-09T16:48:12.589Z,101113.81
2018-09-09T16:50:40.613Z,101116.84
2018-09-09T16:53:08.621Z,101122.50
2018-09-09T16:55:36.648Z,101122.46
2018-09-09T16:58:04.717Z,101120.73
2018-09-09T17:00:32.909Z,101121.73
2018-09-09T17:03:00.982Z,101120.89
2018-09-09T17:05:29.040Z,101118.28
2018-09-09T17:07:57.109Z,101113.87
2018-09-09T17:10:25.205Z,101112.22
2018-09-09T17:12:53.245Z,101110.08
2018-09-09T17:15:21.295Z,101114.74
2018-09-09T17:17:49.336Z,101119.50
2018-09-09T17:20:17.444Z,101120.76
2018-09-09T17:22:45.432Z,101116.65
2018-09-09T17:25:13.461Z,101115.95
2018-09-09T17:27:41.518Z,101114.98
2018-09-09T17:30:09.525Z,101118.13
2018-09-09T17:32:37.717Z,101119.08
2018-09-09T17:35:05.765Z,101119.36
2018-09-09T17:37:33.812Z,101123.89
2018-09-09T17:40:01.888Z,101124.80
2018-09-09T17:42:29.958Z,101124.96
2018-09-09T17:44:57.981Z,101128.03
2018-09-09T17:47:26.056Z,101128.09
2018-09-09T17:49:54.101Z,101135.22
2018-09-09T17:52:22.264Z,101128.52
2018-09-09T17:54:50.246Z,101135.13
2018-09-09T17:57:18.260Z,101136.80
2018-09-09T17:59:46.319Z,101137.50
2018-09-09T18:02:14.353Z,101137.98
2018-09-09T18:04:42.382Z,101136.13
2018-09-09T18:07:10.437Z,101129.44
2018-09-09T18:09:38.477Z,101134.17
2018-09-09T18:12:06.581Z,101137.73
2018-09-09T18:14:34.634Z,101135.58
2018-09-09T18:17:02.651Z,101132.88
2018-09-09T18:19:30.775Z,101136.27
2018-09-09T18:21:58.837Z,101134.74
2018-09-09T18:24:26.945Z,101135.25
2018-09-09T18:26:54.965Z,101138.28
2018-09-09T18:29:23.295Z,101136.27
2018-09-09T18:31:51.311Z,101131.52
2018-09-09T18:34:19.340Z,101132.20
2018-09-09T18:36:47.350Z,101136.91
2018-09-09T18:39:15.398Z,101136.92
2018-09-09T18:41:43.457Z,101140.78
2018-09-09T18:44:11.509Z,101145.67
2018-09-09T18:46:39.514Z,101144.64
2018-09-09T18:49:07.645Z,101141.44
2018-09-09T18:51:35.677Z,101140.42
2018-09-09T18:54:03.827Z,101132.45
2018-09-09T18:56:32.371Z,101133.45
2018-09-09T18:59:01.777Z,101130.05
2018-09-09T19:01:29.952Z,101126.24
2018-09-09T19:03:58.288Z,101129.20
2018-09-09T19:06:26.399Z,101135.07
2018-09-09T19:08:54.683Z,101135.91
2018-09-09T19:11:22.966Z,101138.93
2018-09-09T19:13:51.335Z,101138.60
2018-09-09T19:16:19.374Z,101137.25
2018-09-09T19:18:47.657Z,101139.55
2018-09-09T19:21:15.778Z,101144.09
2018-09-09T19:23:43.836Z,101140.17
2018-09-09T19:26:11.876Z,101137.63
2018-09-09T19:28:40.054Z,101143.70
2018-09-09T19:31:08.156Z,101147.01
2018-09-09T19:33:36.248Z,101145.43
2018-09-09T19:36:04.288Z,101140.01
2018-09-09T19:38:32.430Z,101145.02
2018-09-09T19:41:00.449Z,101144.45
2018-09-09T19:43:28.498Z,101138.89
2018-09-09T19:45:56.529Z,101141.91
2018-09-09T19:48:24.776Z,101146.58
2018-09-09T19:50:53.013Z,101149.92
2018-09-09T19:53:21.112Z,101147.04
2018-09-09T19:55:49.334Z,101143.59
2018-09-09T19:58:17.426Z,101147.08
2018-09-09T20:00:47.513Z,101146.17
2018-09-09T20:03:15.553Z,101145.52
2018-09-09T20:05:43.814Z,101148.27
2018-09-09T20:08:11.911Z,101138.41
2018-09-09T20:10:40.005Z,101143.19
2018-09-09T20:13:08.161Z,101138.92
2018-09-09T20:15:36.317Z,101135.03
2018-09-09T20:18:04.504Z,101140.19
2018-09-09T20:20:38.342Z,101139.63
2018-09-09T20:23:06.361Z,101139.16
2018-09-09T20:25:34.384Z,101139.30
2018-09-09T20:28:02.428Z,101141.41
2018-09-09T20:30:30.526Z,101132.67
2018-09-09T20:32:58.602Z,101130.80
2018-09-09T20:35:26.720Z,101130.34
2018-09-09T20:37:54.774Z,101135.65
2018-09-09T20:40:22.955Z,101131.28
2018-09-09T20:42:51.001Z,101135.14
2018-09-09T20:45:19.057Z,101137.06
2018-09-09T20:47:47.162Z,101139.69
2018-09-09T20:50:15.208Z,101139.98
2018-09-09T20:52:43.226Z,101141.63
2018-09-09T20:55:11.247Z,101140.49
2018-09-09T20:57:39.258Z,101138.11
2018-09-09T21:00:07.342Z,101138.24
2018-09-09T21:02:35.330Z,101135.36
2018-09-09T21:05:03.343Z,101131.23
2018-09-09T21:07:31.381Z,101138.57
2018-09-09T21:09:59.404Z,101131.36
2018-09-09T21:12:27.442Z,101135.54
2018-09-09T21:14:55.493Z,101138.59
2018-09-09T21:17:23.505Z,101141.52
2018-09-09T21:19:51.536Z,101146.48
2018-09-09T21:22:19.568Z,101151.20
2018-09-09T21:24:47.613Z,101149.83
2018-09-09T21:27:15.681Z,101144.80
2018-09-09T21:29:43.692Z,101142.84
2018-09-09T21:32:11.744Z,101139.13
2018-09-09T21:34:39.841Z,101139.67
2018-09-09T21:37:07.964Z,101140.26
2018-09-09T21:39:36.014Z,101143.66
2018-09-09T21:42:04.195Z,101142.24
2018-09-09T21:44:32.337Z,101136.67
2018-09-09T21:47:01.602Z,101138.19
2018-09-09T21:49:29.613Z,101132.20
2018-09-09T21:51:57.693Z,101138.98
2018-09-09T21:54:25.796Z,101140.53
2018-09-09T21:56:53.912Z,101133.90
2018-09-09T21:59:21.998Z,101131.20
2018-09-09T22:01:55.572Z,101131.58
2018-09-09T22:04:23.723Z,101136.77
2018-09-09T22:06:51.764Z,101124.24
2018-09-09T22:09:19.769Z,101127.74
2018-09-09T22:11:47.865Z,101129.18
2018-09-09T22:14:15.978Z,101128.93
2018-09-09T22:16:44.036Z,101130.11
2018-09-09T22:19:12.085Z,101125.26
2018-09-09T22:21:40.125Z,101125.54
2018-09-09T22:24:08.194Z,101125.66
2018-09-09T22:26:36.264Z,101123.39
2018-09-09T22:29:04.257Z,101122.05
2018-09-09T22:31:32.285Z,101129.31
2018-09-09T22:34:00.258Z,101121.03
2018-09-09T22:36:28.316Z,101122.15
2018-09-09T22:38:56.444Z,101114.74
2018-09-09T22:41:24.584Z,101119.75
2018-09-09T22:43:52.604Z,101119.03
2018-09-09T22:46:20.615Z,101115.64
2018-09-09T22:48:48.604Z,101116.42
2018-09-09T22:51:16.724Z,101113.99
2018-09-09T22:53:44.737Z,101115.27
2018-09-09T22:56:12.847Z,101113.48
2018-09-09T22:58:40.883Z,101113.62
2018-09-09T23:01:08.996Z,101114.87
2018-09-09T23:03:37.061Z,101107.67
2018-09-09T23:06:05.069Z,101102.81
2018-09-09T23:08:33.104Z,101094.91
2018-09-09T23:11:01.174Z,101096.48
2018-09-09T23:13:29.180Z,101091.16
2018-09-09T23:15:57.278Z,101096.76
2018-09-09T23:18:25.299Z,101089.78
2018-09-09T23:20:53.356Z,101101.59
2018-09-09T23:23:21.470Z,101092.11
2018-09-09T23:25:49.505Z,101092.41
2018-09-09T23:28:17.489Z,101089.29
2018-09-09T23:30:45.496Z,101085.10
2018-09-09T23:33:13.500Z,101087.94
2018-09-09T23:35:41.541Z,101084.11
2018-09-09T23:38:09.572Z,101081.75
2018-09-09T23:40:37.572Z,101079.36
2018-09-09T23:43:05.675Z,101072.08
2018-09-09T23:45:33.678Z,101068.12
2018-09-09T23:48:01.818Z,101071.86
2018-09-09T23:50:30.101Z,101069.00
2018-09-09T23:52:58.284Z,101071.30
2018-09-09T23:55:26.357Z,101072.56
2018-09-09T23:57:54.394Z,101068.63
